createdAt,value
2023-04-02T00:00:10.213Z,100.00
2023-04-02T00:03:11.021Z,100.00
2023-04-02T00:05:54.738Z,100.00
2023-04-02T00:08:24.596Z,100.00
2023-04-02T00:10:59.521Z,100.00
2023-04-02T00:13:34.461Z,100.00
2023-04-02T00:16:06.298Z,100.00
2023-04-02T00:18:40.186Z,100.00
2023-04-02T00:21:38.232Z,100.00
2023-04-02T00:24:14.243Z,100.00
2023-04-02T00:26:54.835Z,100.00
2023-04-02T00:29:27.535Z,100.00
2023-04-02T00:32:00.178Z,100.00
2023-04-02T00:34:47.318Z,100.00
2023-04-02T00:37:44.480Z,100.00
2023-04-02T00:40:24.980Z,100.00
2023-04-02T00:42:56.172Z,100.00
2023-04-02T00:45:37.971Z,100.00
2023-04-02T00:48:43.842Z,100.00
2023-04-02T00:51:26.508Z,100.00
2023-04-02T00:54:02.932Z,100.00
2023-04-02T00:56:44.568Z,100.00
2023-04-02T00:59:31.424Z,100.00
2023-04-02T01:02:30.211Z,100.00
2023-04-02T01:05:29.382Z,100.00
2023-04-02T01:08:20.569Z,100.00
2023-04-02T01:11:04.495Z,100.00
2023-04-02T01:13:49.777Z,100.00
2023-04-02T01:16:46.760Z,100.00
2023-04-02T01:19:30.419Z,100.00
2023-04-02T01:22:22.558Z,100.00
2023-04-02T01:24:55.398Z,100.00
2023-04-02T01:27:38.092Z,100.00
2023-04-02T01:30:13.035Z,100.00
2023-04-02T01:32:45.675Z,100.00
2023-04-02T01:35:14.175Z,100.00
2023-04-02T01:37:53.420Z,100.00
2023-04-02T01:40:52.463Z,100.00
2023-04-02T01:43:52.429Z,100.00
2023-04-02T01:46:49.069Z,100.00
2023-04-02T01:49:21.505Z,100.00
2023-04-02T01:51:57.224Z,100.00
2023-04-02T01:54:31.524Z,100.00
2023-04-02T01:57:02.601Z,100.00
2023-04-02T01:59:33.914Z,100.00
2023-04-02T02:02:29.969Z,100.00
2023-04-02T02:04:57.273Z,100.00
2023-04-02T02:07:28.696Z,100.00
2023-04-02T02:10:02.427Z,100.00
2023-04-02T02:12:33.762Z,100.00
2023-04-02T02:15:01.303Z,100.00
2023-04-02T02:17:35.003Z,100.00
2023-04-02T02:20:11.053Z,100.00
2023-04-02T02:22:45.101Z,100.00
2023-04-02T02:25:21.032Z,100.00
2023-04-02T02:27:58.822Z,100.00
2023-04-02T02:30:54.631Z,100.00
2023-04-02T02:33:54.972Z,100.00
2023-04-02T02:36:49.707Z,100.00
2023-04-02T02:42:42.433Z,100.00
2023-04-02T02:45:26.442Z,100.00
2023-04-02T02:47:59.520Z,100.00
2023-04-02T02:50:39.080Z,100.00
2023-04-02T02:53:24.588Z,100.00
2023-04-02T02:56:00.040Z,100.00
2023-04-02T02:58:37.280Z,100.00
2023-04-02T03:01:21.176Z,100.00
2023-04-02T03:04:20.896Z,100.00
2023-04-02T03:06:54.566Z,100.00
2023-04-02T03:09:52.148Z,100.00
2023-04-02T03:12:45.273Z,100.00
2023-04-02T03:16:03.666Z,100.00
2023-04-02T03:18:45.233Z,100.00
2023-04-02T03:21:51.840Z,100.00
2023-04-02T03:24:59.857Z,100.00
2023-04-02T03:27:37.598Z,100.00
2023-04-02T03:30:55.468Z,100.00
2023-04-02T03:33:36.342Z,100.00
2023-04-02T03:36:22.640Z,100.00
2023-04-02T03:39:15.166Z,100.00
2023-04-02T03:42:17.304Z,100.00
2023-04-02T03:45:27.632Z,100.00
2023-04-02T03:48:59.308Z,100.00
2023-04-02T03:52:06.525Z,100.00
2023-04-02T03:54:53.658Z,100.00
2023-04-02T03:57:46.145Z,100.00
2023-04-02T04:00:44.489Z,100.00
2023-04-02T04:03:46.173Z,100.00
2023-04-02T04:06:56.831Z,100.00
2023-04-02T04:12:52.186Z,100.00
2023-04-02T04:16:26.590Z,100.00
2023-04-02T04:19:07.127Z,100.00
2023-04-02T04:21:39.895Z,100.00
2023-04-02T04:24:22.041Z,100.00
2023-04-02T04:27:26.033Z,100.00
2023-04-02T04:30:23.733Z,100.00
2023-04-02T04:33:05.375Z,100.00
2023-04-02T04:35:40.371Z,100.00
2023-04-02T04:38:39.279Z,100.00
2023-04-02T04:41:32.799Z,100.00
2023-04-02T04:44:38.736Z,100.00
2023-04-02T04:47:50.210Z,100.00
2023-04-02T04:50:54.853Z,100.00
2023-04-02T04:53:31.114Z,100.00
2023-04-02T04:56:18.838Z,100.00
2023-04-02T04:58:59.237Z,100.00
2023-04-02T05:01:42.126Z,100.00
2023-04-02T05:04:40.308Z,100.00
2023-04-02T05:07:28.335Z,100.00
2023-04-02T05:10:36.043Z,100.00
2023-04-02T05:13:43.385Z,100.00
2023-04-02T05:16:23.465Z,100.00
2023-04-02T05:19:10.326Z,100.00
2023-04-02T05:21:48.786Z,100.00
2023-04-02T05:25:02.600Z,100.00
2023-04-02T05:28:26.938Z,100.00
2023-04-02T05:31:12.487Z,100.00
2023-04-02T05:33:50.824Z,100.00
2023-04-02T05:36:41.155Z,100.00
2023-04-02T05:39:12.141Z,100.00
2023-04-02T05:41:56.612Z,100.00
2023-04-02T05:44:35.797Z,100.00
2023-04-02T05:47:31.562Z,100.00
2023-04-02T05:50:14.920Z,100.00
2023-04-02T05:53:27.007Z,100.00
2023-04-02T05:56:30.532Z,100.00
2023-04-02T05:59:33.986Z,100.00
2023-04-02T06:02:30.968Z,100.00
2023-04-02T06:05:20.478Z,100.00
2023-04-02T06:08:04.290Z,100.00
2023-04-02T06:11:18.410Z,100.00
2023-04-02T06:13:48.605Z,100.00
2023-04-02T06:16:32.562Z,100.00
2023-04-02T06:19:04.038Z,100.00
2023-04-02T06:21:36.743Z,100.00
2023-04-02T06:24:18.516Z,100.00
2023-04-02T06:27:02.623Z,100.00
2023-04-02T06:29:42.596Z,100.00
2023-04-02T06:32:15.907Z,100.00
2023-04-02T06:34:46.058Z,100.00
2023-04-02T06:37:48.844Z,100.00
2023-04-02T06:40:59.650Z,100.00
2023-04-02T06:43:36.605Z,100.00
2023-04-02T06:46:31.177Z,100.00
2023-04-02T06:49:44.405Z,100.00
2023-04-02T06:52:44.991Z,100.00
2023-04-02T06:56:15.506Z,100.00
2023-04-02T06:58:47.273Z,100.00
2023-04-02T07:01:31.047Z,100.00
2023-04-02T07:03:58.682Z,100.00
2023-04-02T07:06:28.565Z,100.00
2023-04-02T07:09:04.384Z,100.00
2023-04-02T07:11:37.022Z,100.00
2023-04-02T07:14:04.923Z,100.00
2023-04-02T07:16:35.365Z,100.00
2023-04-02T07:19:11.672Z,100.00
2023-04-02T07:21:39.075Z,100.00
2023-04-02T07:24:08.805Z,100.00
2023-04-02T07:26:36.675Z,100.00
2023-04-02T07:29:08.259Z,100.00
2023-04-02T07:31:39.439Z,100.00
2023-04-02T07:34:14.486Z,100.00
2023-04-02T07:36:52.407Z,100.00
2023-04-02T07:39:22.374Z,100.00
2023-04-02T07:41:59.864Z,100.00
2023-04-02T07:44:31.052Z,100.00
2023-04-02T07:46:58.229Z,100.00
2023-04-02T07:49:36.689Z,100.00
2023-04-02T07:52:04.105Z,100.00
2023-04-02T07:54:31.483Z,100.00
2023-04-02T07:57:02.554Z,100.00
2023-04-02T07:59:43.121Z,100.00
2023-04-02T08:02:25.452Z,100.00
2023-04-02T08:04:56.966Z,100.00
2023-04-02T08:07:30.330Z,100.00
2023-04-02T08:10:14.369Z,100.00
2023-04-02T08:12:46.563Z,100.00
2023-04-02T08:15:29.323Z,100.00
2023-04-02T08:18:04.443Z,100.00
2023-04-02T08:20:43.706Z,100.00
2023-04-02T08:23:29.093Z,100.00
2023-04-02T08:25:56.363Z,100.00
2023-04-02T08:28:24.038Z,100.00
2023-04-02T08:30:52.832Z,100.00
2023-04-02T08:33:20.422Z,100.00
2023-04-02T08:35:50.738Z,100.00
2023-04-02T08:38:24.765Z,100.00
2023-04-02T08:41:02.845Z,100.00
2023-04-02T08:43:38.840Z,100.00
2023-04-02T08:46:52.835Z,100.00
2023-04-02T08:50:10.693Z,100.00
2023-04-02T08:52:44.141Z,100.00
2023-04-02T08:55:30.055Z,100.00
2023-04-02T08:58:46.036Z,100.00
2023-04-02T09:01:53.938Z,100.00
2023-04-02T09:04:28.568Z,100.00
2023-04-02T09:07:09.820Z,100.00
2023-04-02T09:09:40.969Z,100.00
2023-04-02T09:12:25.486Z,100.00
2023-04-02T09:18:24.280Z,100.00
2023-04-02T09:22:00.869Z,100.00
2023-04-02T09:24:38.327Z,100.00
2023-04-02T09:27:27.271Z,100.00
2023-04-02T09:30:30.630Z,100.00
2023-04-02T09:33:07.402Z,100.00
2023-04-02T09:35:53.959Z,94.06
2023-04-02T09:38:37.356Z,95.74
2023-04-02T09:41:24.496Z,96.11
2023-04-02T09:44:16.695Z,90.77
2023-04-02T09:46:56.693Z,77.38
2023-04-02T09:49:42.023Z,89.61
2023-04-02T09:52:21.904Z,73.47
2023-04-02T09:55:26.104Z,78.12
2023-04-02T09:58:14.048Z,78.78
2023-04-02T10:00:54.719Z,67.63
2023-04-02T10:03:53.755Z,62.53
2023-04-02T10:06:25.219Z,60.26
2023-04-02T10:09:18.772Z,61.29
2023-04-02T10:12:16.915Z,57.33
2023-04-02T10:17:27.908Z,67.45
2023-04-02T10:20:09.701Z,64.36
2023-04-02T10:22:42.744Z,60.04
2023-04-02T10:25:24.178Z,62.36
2023-04-02T10:28:23.042Z,68.01
2023-04-02T10:31:07.610Z,64.71
2023-04-02T10:33:41.180Z,82.17
2023-04-02T10:36:48.973Z,74.85
2023-04-02T10:39:48.952Z,63.15
2023-04-02T10:43:20.186Z,71.11
2023-04-02T10:46:47.706Z,65.91
2023-04-02T10:49:53.204Z,63.89
2023-04-02T10:52:51.265Z,58.24
2023-04-02T10:55:32.615Z,58.55
2023-04-02T10:58:24.809Z,58.87
2023-04-02T11:01:07.213Z,68.86
2023-04-02T11:03:45.134Z,54.99
2023-04-02T11:06:28.666Z,55.84
2023-04-02T11:09:19.872Z,52.13
2023-04-02T11:11:53.989Z,50.02
2023-04-02T11:14:32.105Z,75.65
2023-04-02T11:17:08.296Z,60.65
2023-04-02T11:19:38.083Z,100.00
2023-04-02T11:22:21.316Z,100.00
2023-04-02T11:24:56.954Z,100.00
2023-04-02T11:27:36.104Z,70.20
2023-04-02T11:30:16.213Z,63.47
2023-04-02T11:32:49.960Z,58.34
2023-04-02T11:35:32.625Z,54.16
2023-04-02T11:38:26.210Z,58.27
2023-04-02T11:40:56.511Z,57.13
2023-04-02T11:43:41.739Z,52.16
2023-04-02T11:46:39.648Z,51.08
2023-04-02T11:49:38.483Z,48.63
2023-04-02T11:52:21.667Z,55.70
2023-04-02T11:55:28.999Z,49.65
2023-04-02T11:59:08.524Z,43.79
2023-04-02T12:02:00.248Z,66.82
2023-04-02T12:04:51.030Z,56.63
2023-04-02T12:07:47.023Z,49.24
2023-04-02T12:10:23.370Z,47.31
2023-04-02T12:12:54.086Z,43.26
2023-04-02T12:15:55.086Z,45.53
2023-04-02T12:18:24.873Z,39.78
2023-04-02T12:20:59.078Z,39.99
2023-04-02T12:23:37.856Z,39.48
2023-04-02T12:26:30.282Z,38.93
2023-04-02T12:29:26.480Z,36.08
2023-04-02T12:31:59.233Z,36.91
2023-04-02T12:34:35.261Z,33.64
2023-04-02T12:37:05.783Z,35.95
2023-04-02T12:39:35.368Z,38.61
2023-04-02T12:42:04.120Z,45.26
2023-04-02T12:44:33.710Z,45.62
2023-04-02T12:47:09.636Z,45.62
2023-04-02T12:49:43.739Z,55.58
2023-04-02T12:52:22.304Z,52.52
2023-04-02T12:54:55.158Z,53.72
2023-04-02T12:57:25.689Z,57.85
2023-04-02T13:00:00.745Z,51.81
2023-04-02T13:02:44.981Z,59.01
2023-04-02T13:05:12.664Z,60.67
2023-04-02T13:07:42.982Z,64.31
2023-04-02T13:10:30.656Z,57.19
2023-04-02T13:13:03.416Z,54.25
2023-04-02T13:15:37.133Z,55.46
2023-04-02T13:18:13.584Z,61.32
2023-04-02T13:20:43.781Z,63.85
2023-04-02T13:23:29.380Z,55.53
2023-04-02T13:26:03.066Z,53.11
2023-04-02T13:28:31.931Z,51.22
2023-04-02T13:30:59.524Z,51.05
2023-04-02T13:33:27.862Z,50.47
2023-04-02T13:35:55.417Z,51.39
2023-04-02T13:38:22.760Z,52.10
2023-04-02T13:40:54.528Z,49.87
2023-04-02T13:43:22.145Z,47.46
2023-04-02T13:46:00.136Z,49.81
2023-04-02T13:48:29.095Z,48.31
2023-04-02T13:50:59.806Z,48.59
2023-04-02T13:53:36.348Z,48.76
2023-04-02T13:56:03.878Z,47.84
2023-04-02T13:58:31.200Z,48.22
2023-04-02T14:01:01.148Z,55.19
2023-04-02T14:03:33.628Z,58.88
2023-04-02T14:06:16.820Z,59.49
2023-04-02T14:09:02.522Z,55.79
2023-04-02T14:11:56.635Z,60.46
2023-04-02T14:14:51.485Z,66.11
2023-04-02T14:20:56.900Z,89.21
2023-04-02T14:23:52.127Z,72.74
2023-04-02T14:27:16.109Z,83.77
2023-04-02T14:30:28.592Z,76.33
2023-04-02T14:37:33.298Z,69.22
2023-04-02T14:40:23.572Z,100.00
2023-04-02T14:43:05.221Z,100.00
2023-04-02T14:46:38.122Z,100.00
2023-04-02T14:49:56.232Z,100.00
2023-04-02T14:52:42.314Z,100.00
2023-04-02T14:55:39.077Z,100.00
2023-04-02T14:58:18.718Z,100.00
2023-04-02T15:01:05.553Z,100.00
2023-04-02T15:04:03.124Z,100.00
2023-04-02T15:06:52.769Z,100.00
2023-04-02T15:09:45.640Z,100.00
2023-04-02T15:12:29.235Z,100.00
2023-04-02T15:15:24.364Z,100.00
2023-04-02T15:18:01.601Z,100.00
2023-04-02T15:21:24.177Z,100.00
2023-04-02T15:23:58.093Z,100.00
2023-04-02T15:26:36.473Z,100.00
2023-04-02T15:29:44.040Z,100.00
2023-04-02T15:32:39.688Z,100.00
2023-04-02T15:35:11.716Z,100.00
2023-04-02T15:37:45.827Z,100.00
2023-04-02T15:40:59.232Z,100.00
2023-04-02T15:43:38.762Z,100.00
2023-04-02T15:46:15.206Z,100.00
2023-04-02T15:49:42.850Z,100.00
2023-04-02T15:52:18.409Z,100.00
2023-04-02T15:55:02.300Z,100.00
2023-04-02T15:57:58.425Z,100.00
2023-04-02T16:00:58.697Z,100.00
2023-04-02T16:03:59.927Z,100.00
2023-04-02T16:07:43.264Z,100.00
2023-04-02T16:10:41.716Z,100.00
2023-04-02T16:13:36.085Z,100.00
2023-04-02T16:16:36.351Z,100.00
2023-04-02T16:19:41.926Z,100.00
2023-04-02T16:22:18.517Z,100.00
2023-04-02T16:24:56.873Z,100.00
2023-04-02T16:27:41.503Z,100.00
2023-04-02T16:30:20.950Z,100.00
2023-04-02T16:33:31.835Z,100.00
2023-04-02T16:36:08.408Z,100.00
2023-04-02T16:38:48.590Z,100.00
2023-04-02T16:41:53.318Z,100.00
2023-04-02T16:44:42.231Z,100.00
2023-04-02T16:47:28.641Z,100.00
2023-04-02T16:50:01.870Z,100.00
2023-04-02T16:52:56.484Z,100.00
2023-04-02T16:55:48.902Z,100.00
2023-04-02T16:58:43.909Z,100.00
2023-04-02T17:01:44.823Z,100.00
2023-04-02T17:04:51.354Z,100.00
2023-04-02T17:08:13.681Z,100.00
2023-04-02T17:10:58.057Z,100.00
2023-04-02T17:14:06.242Z,100.00
2023-04-02T17:16:41.056Z,100.00
2023-04-02T17:19:15.982Z,100.00
2023-04-02T17:21:49.013Z,100.00
2023-04-02T17:24:39.216Z,100.00
2023-04-02T17:27:30.578Z,100.00
2023-04-02T17:30:43.625Z,100.00
2023-04-02T17:33:22.261Z,100.00
2023-04-02T17:36:08.518Z,100.00
2023-04-02T17:39:07.581Z,100.00
2023-04-02T17:41:50.189Z,100.00
2023-04-02T17:44:44.204Z,100.00
2023-04-02T17:47:25.193Z,100.00
2023-04-02T17:50:12.954Z,100.00
2023-04-02T17:53:28.644Z,100.00
2023-04-02T17:56:51.458Z,100.00
2023-04-02T17:59:32.080Z,100.00
2023-04-02T18:02:09.264Z,100.00
2023-04-02T18:04:46.828Z,100.00
2023-04-02T18:07:32.417Z,100.00
2023-04-02T18:10:12.500Z,100.00
2023-04-02T18:12:51.993Z,100.00
2023-04-02T18:15:30.176Z,100.00
2023-04-02T18:18:32.287Z,100.00
2023-04-02T18:21:06.723Z,100.00
2023-04-02T18:23:55.805Z,100.00
2023-04-02T18:26:38.484Z,100.00
2023-04-02T18:29:15.272Z,100.00
2023-04-02T18:31:49.510Z,100.00
2023-04-02T18:34:28.577Z,100.00
2023-04-02T18:37:05.437Z,100.00
2023-04-02T18:39:39.676Z,100.00
2023-04-02T18:42:16.663Z,100.00
2023-04-02T18:45:01.011Z,100.00
2023-04-02T18:47:42.970Z,100.00
2023-04-02T18:50:19.005Z,100.00
2023-04-02T18:52:48.833Z,100.00
2023-04-02T18:55:22.688Z,100.00
2023-04-02T18:57:59.233Z,100.00
2023-04-02T19:00:34.885Z,100.00
2023-04-02T19:03:09.300Z,100.00
2023-04-02T19:05:45.710Z,100.00
2023-04-02T19:08:24.498Z,100.00
2023-04-02T19:10:59.866Z,100.00
2023-04-02T19:13:30.778Z,100.00
2023-04-02T19:16:13.021Z,100.00
2023-04-02T19:18:50.114Z,100.00
2023-04-02T19:21:33.148Z,100.00
2023-04-02T19:24:13.309Z,100.00
2023-04-02T19:27:09.007Z,100.00
2023-04-02T19:29:52.224Z,100.00
2023-04-02T19:32:30.398Z,100.00
2023-04-02T19:35:15.321Z,100.00
2023-04-02T19:38:06.075Z,100.00
2023-04-02T19:40:54.745Z,100.00
2023-04-02T19:43:30.357Z,100.00
2023-04-02T19:46:04.647Z,100.00
2023-04-02T19:48:49.014Z,100.00
2023-04-02T19:51:17.589Z,100.00
2023-04-02T19:53:48.163Z,100.00
2023-04-02T19:56:16.129Z,100.00
2023-04-02T19:58:45.174Z,100.00
2023-04-02T20:01:13.403Z,100.00
2023-04-02T20:03:47.307Z,100.00
2023-04-02T20:06:17.905Z,100.00
2023-04-02T20:08:47.355Z,100.00
2023-04-02T20:11:16.075Z,100.00
2023-04-02T20:13:46.813Z,100.00
2023-04-02T20:16:14.824Z,100.00
2023-04-02T20:18:43.129Z,100.00
2023-04-02T20:21:11.640Z,100.00
2023-04-02T20:23:44.353Z,100.00
2023-04-02T20:26:13.202Z,100.00
2023-04-02T20:28:44.803Z,100.00
2023-04-02T20:31:18.392Z,100.00
2023-04-02T20:33:55.318Z,100.00
2023-04-02T20:36:25.066Z,100.00
2023-04-02T20:38:53.126Z,100.00
2023-04-02T20:41:24.260Z,100.00
2023-04-02T20:43:52.308Z,100.00
2023-04-02T20:46:20.510Z,100.00
2023-04-02T20:48:48.353Z,100.00
2023-04-02T20:51:18.782Z,100.00
2023-04-02T20:53:46.814Z,100.00
2023-04-02T20:56:18.608Z,100.00
2023-04-02T20:58:46.301Z,100.00
2023-04-02T21:01:20.283Z,100.00
2023-04-02T21:03:49.934Z,100.00
2023-04-02T21:06:21.677Z,100.00
2023-04-02T21:08:50.313Z,100.00
2023-04-02T21:11:18.850Z,100.00
2023-04-02T21:13:46.696Z,100.00
2023-04-02T21:16:20.702Z,100.00
2023-04-02T21:18:51.200Z,100.00
2023-04-02T21:21:21.188Z,100.00
2023-04-02T21:23:59.534Z,100.00
2023-04-02T21:26:34.213Z,100.00
2023-04-02T21:29:04.327Z,100.00
2023-04-02T21:31:37.731Z,100.00
2023-04-02T21:34:07.359Z,100.00
2023-04-02T21:36:41.285Z,100.00
2023-04-02T21:39:18.995Z,100.00
2023-04-02T21:41:52.214Z,100.00
2023-04-02T21:44:23.194Z,100.00
2023-04-02T21:46:53.980Z,100.00
2023-04-02T21:49:23.477Z,100.00
2023-04-02T21:51:52.083Z,100.00
2023-04-02T21:54:20.304Z,100.00
2023-04-02T21:56:49.202Z,100.00
2023-04-02T21:59:18.528Z,100.00
2023-04-02T22:01:53.767Z,100.00
2023-04-02T22:04:25.526Z,100.00
2023-04-02T22:06:55.932Z,100.00
2023-04-02T22:09:26.857Z,100.00
2023-04-02T22:11:59.437Z,100.00
2023-04-02T22:14:27.676Z,100.00
2023-04-02T22:16:55.869Z,100.00
2023-04-02T22:19:23.701Z,100.00
2023-04-02T22:21:54.346Z,100.00
2023-04-02T22:24:22.612Z,100.00
2023-04-02T22:26:50.662Z,100.00
2023-04-02T22:29:18.313Z,100.00
2023-04-02T22:31:48.782Z,100.00
2023-04-02T22:34:16.355Z,100.00
2023-04-02T22:36:45.821Z,100.00
2023-04-02T22:39:13.491Z,100.00
2023-04-02T22:42:27.986Z,100.00
2023-04-02T22:44:40.100Z,100.00
2023-04-02T22:47:07.597Z,100.00
2023-04-02T22:49:34.855Z,100.00
2023-04-02T22:52:05.848Z,100.00
2023-04-02T22:54:33.306Z,100.00
2023-04-02T22:57:01.003Z,100.00
2023-04-02T22:59:33.364Z,100.00
2023-04-02T23:02:04.057Z,100.00
2023-04-02T23:04:32.732Z,100.00
2023-04-02T23:07:01.826Z,100.00
2023-04-02T23:09:33.665Z,100.00
2023-04-02T23:12:03.481Z,100.00
2023-04-02T23:14:31.136Z,100.00
2023-04-02T23:16:58.568Z,100.00
2023-04-02T23:19:28.059Z,100.00
2023-04-02T23:21:55.588Z,100.00
2023-04-02T23:24:22.881Z,100.00
2023-04-02T23:26:50.381Z,100.00
2023-04-02T23:29:17.664Z,100.00
2023-04-02T23:31:47.728Z,100.00
2023-04-02T23:34:15.308Z,100.00
2023-04-02T23:36:42.793Z,100.00
2023-04-02T23:39:13.326Z,100.00
2023-04-02T23:41:43.793Z,100.00
2023-04-02T23:44:12.713Z,100.00
2023-04-02T23:46:40.360Z,100.00
2023-04-02T23:49:11.639Z,100.00
2023-04-02T23:51:39.354Z,100.00
2023-04-02T23:54:06.819Z,100.00
2023-04-02T23:56:34.131Z,100.00
2023-04-02T23:59:03.940Z,100.00
